Terminal Aerodrome Forecast
Issued by NWS

Home | Current Version | Previous Version | Text Only | Print | Product List | Glossary On
Versions: 1 2 3 4 5 6 7 8 9 10 11 12 13 14 15 16 17 18 19 20 21 22 23 24 25 26 27 28 29 30 31 32 33 34 35 36 37 38 39 40 41 42 43 44 45 46 47
306
FTAK31 PANC 241135
TAFAIL
TAF
PAIL 241135Z 2412/2512 24008KT P6SM SCT020 BKN040
     FM241900 24007KT P6SM OVC025
     FM250200 22012KT P6SM OVC070=

USA.gov is the U.S. government's official web portal to all federal, state and local government web resources and services.